createdAt,value
2018-09-22T00:01:51.312Z,1.23
2018-09-22T00:04:19.425Z,1.10
2018-09-22T00:06:47.533Z,1.23
2018-09-22T00:09:15.676Z,1.37
2018-09-22T00:11:43.782Z,1.37
2018-09-22T00:14:11.926Z,1.30
2018-09-22T00:16:40.050Z,1.10
2018-09-22T00:19:08.165Z,1.40
2018-09-22T00:21:36.265Z,1.43
2018-09-22T00:24:04.389Z,1.53
2018-09-22T00:26:32.549Z,1.10
2018-09-22T00:29:00.682Z,1.33
2018-09-22T00:31:28.786Z,1.50
2018-09-22T00:33:56.910Z,1.00
2018-09-22T00:36:25.033Z,1.40
2018-09-22T00:38:53.195Z,1.00
2018-09-22T00:41:21.407Z,1.30
2018-09-22T00:43:49.777Z,1.30
2018-09-22T00:46:18.120Z,1.30
2018-09-22T00:48:46.330Z,1.00
2018-09-22T00:51:14.448Z,1.27
2018-09-22T00:53:42.610Z,1.33
2018-09-22T00:56:10.729Z,1.40
2018-09-22T00:58:38.969Z,1.20
2018-09-22T01:01:07.221Z,1.17
2018-09-22T01:03:35.406Z,1.40
2018-09-22T01:06:03.530Z,1.30
2018-09-22T01:08:31.621Z,0.97
2018-09-22T01:10:59.742Z,1.23
2018-09-22T01:13:27.921Z,1.30
2018-09-22T01:15:56.092Z,1.30
2018-09-22T01:18:24.187Z,1.60
2018-09-22T01:20:52.335Z,1.37
2018-09-22T01:23:20.499Z,1.20
2018-09-22T01:25:48.693Z,1.70
2018-09-22T01:28:16.830Z,1.50
2018-09-22T01:30:44.997Z,1.40
2018-09-22T01:33:13.103Z,1.77
2018-09-22T01:35:41.206Z,1.43
2018-09-22T01:38:09.306Z,1.70
2018-09-22T01:40:37.412Z,2.00
2018-09-22T01:43:05.493Z,2.00
2018-09-22T01:45:33.609Z,1.50
2018-09-22T01:48:01.726Z,1.87
2018-09-22T01:50:29.814Z,1.70
2018-09-22T01:52:57.973Z,2.10
2018-09-22T01:55:26.093Z,1.80
2018-09-22T01:57:54.198Z,2.10
2018-09-22T02:00:22.310Z,1.60
2018-09-22T02:02:50.480Z,2.03
2018-09-22T02:05:18.602Z,1.47
2018-09-22T02:07:46.730Z,1.90
2018-09-22T02:10:14.834Z,2.10
2018-09-22T02:12:42.957Z,1.80
2018-09-22T02:15:11.074Z,2.20
2018-09-22T02:17:39.178Z,1.97
2018-09-22T02:20:07.370Z,1.87
2018-09-22T02:22:35.529Z,2.10
2018-09-22T02:25:03.658Z,1.60
2018-09-22T02:27:31.767Z,2.17
2018-09-22T02:29:59.898Z,1.50
2018-09-22T02:32:28.009Z,1.80
2018-09-22T02:34:56.168Z,2.20
2018-09-22T02:37:24.392Z,1.87
2018-09-22T02:39:52.562Z,1.17
2018-09-22T02:42:20.717Z,1.27
2018-09-22T02:44:48.918Z,1.80
2018-09-22T02:47:17.038Z,1.60
2018-09-22T02:49:45.229Z,1.13
2018-09-22T02:52:13.316Z,1.40
2018-09-22T02:54:41.425Z,1.20
2018-09-22T02:57:09.545Z,1.87
2018-09-22T02:59:37.681Z,1.67
2018-09-22T03:02:05.893Z,1.70
2018-09-22T03:04:34.001Z,1.83
2018-09-22T03:07:02.170Z,1.80
2018-09-22T03:09:30.270Z,1.60
2018-09-22T03:11:58.361Z,1.97
2018-09-22T03:14:26.472Z,1.90
2018-09-22T03:16:54.610Z,1.70
2018-09-22T03:19:22.720Z,1.60
2018-09-22T03:21:50.890Z,1.70
2018-09-22T03:24:19.025Z,2.10
2018-09-22T03:26:47.157Z,1.67
2018-09-22T03:29:15.254Z,1.90
2018-09-22T03:31:43.401Z,1.70
2018-09-22T03:34:11.507Z,1.80
2018-09-22T03:36:39.630Z,1.83
2018-09-22T03:39:09.101Z,1.60
2018-09-22T03:41:37.214Z,1.60
2018-09-22T03:44:05.323Z,1.67
2018-09-22T03:46:33.456Z,1.30
2018-09-22T03:49:01.602Z,1.53
2018-09-22T03:51:29.738Z,1.80
2018-09-22T03:53:57.841Z,1.73
2018-09-22T03:56:25.964Z,1.53
2018-09-22T03:58:54.086Z,1.67
2018-09-22T04:01:22.269Z,1.87
2018-09-22T04:03:50.374Z,2.10
2018-09-22T04:06:18.490Z,2.47
2018-09-22T04:08:46.604Z,1.90
2018-09-22T04:11:14.726Z,1.80
2018-09-22T04:13:42.888Z,2.40
2018-09-22T04:16:10.993Z,1.60
2018-09-22T04:18:39.116Z,1.50
2018-09-22T04:21:07.247Z,1.60
2018-09-22T04:23:35.370Z,1.70
2018-09-22T04:26:03.500Z,1.97
2018-09-22T04:28:31.610Z,1.83
2018-09-22T04:30:59.726Z,1.77
2018-09-22T04:33:27.994Z,1.70
2018-09-22T04:35:56.037Z,1.67
2018-09-22T04:38:24.145Z,2.20
2018-09-22T04:40:52.533Z,1.80
2018-09-22T04:43:20.642Z,1.90
2018-09-22T04:45:48.816Z,1.80
2018-09-22T04:48:16.939Z,2.10
2018-09-22T04:50:45.057Z,2.30
2018-09-22T04:53:13.163Z,1.83
2018-09-22T04:55:41.305Z,2.10
2018-09-22T04:58:09.413Z,1.83
2018-09-22T05:00:37.554Z,1.40
2018-09-22T05:03:05.703Z,2.20
2018-09-22T05:05:33.843Z,2.17
2018-09-22T05:08:01.945Z,2.40
2018-09-22T05:10:30.081Z,2.23
2018-09-22T05:12:58.177Z,2.40
2018-09-22T05:15:26.274Z,2.20
2018-09-22T05:17:54.414Z,1.93
2018-09-22T05:20:22.530Z,2.10
2018-09-22T05:22:50.778Z,2.13
2018-09-22T05:25:18.876Z,1.90
2018-09-22T05:27:47.024Z,1.93
2018-09-22T05:30:15.197Z,2.03
2018-09-22T05:32:43.497Z,1.90
2018-09-22T05:35:11.609Z,2.17
2018-09-22T05:37:39.774Z,2.00
2018-09-22T05:40:07.966Z,2.07
2018-09-22T05:42:36.195Z,1.97
2018-09-22T05:45:04.513Z,1.90
2018-09-22T05:47:32.651Z,1.90
2018-09-22T05:50:00.782Z,1.63
2018-09-22T05:52:28.971Z,1.60
2018-09-22T05:54:57.105Z,2.27
2018-09-22T05:57:25.426Z,1.60
2018-09-22T05:59:53.562Z,1.70
2018-09-22T06:02:21.719Z,1.80
2018-09-22T06:04:49.868Z,1.40
2018-09-22T06:07:17.997Z,1.93
2018-09-22T06:09:46.154Z,1.57
2018-09-22T06:12:14.284Z,1.70
2018-09-22T06:14:42.431Z,1.63
2018-09-22T06:17:10.557Z,1.80
2018-09-22T06:19:38.710Z,1.67
2018-09-22T06:22:06.991Z,2.03
2018-09-22T06:24:35.165Z,1.63
2018-09-22T06:27:03.359Z,1.90
2018-09-22T06:29:31.662Z,2.00
2018-09-22T06:31:59.778Z,2.07
2018-09-22T06:34:27.929Z,2.30
2018-09-22T06:36:56.132Z,2.10
2018-09-22T06:39:24.267Z,2.20
2018-09-22T06:41:52.388Z,2.70
2018-09-22T06:44:23.302Z,1.60
2018-09-22T06:46:51.462Z,2.47
2018-09-22T06:49:19.635Z,1.30
2018-09-22T06:51:47.956Z,1.83
2018-09-22T06:54:16.132Z,1.87
2018-09-22T06:56:44.261Z,2.00
2018-09-22T06:59:12.405Z,1.97
2018-09-22T07:01:40.749Z,2.07
2018-09-22T07:04:08.921Z,1.80
2018-09-22T07:06:37.084Z,2.17
2018-09-22T07:09:06.389Z,2.00
2018-09-22T07:11:34.569Z,1.97
2018-09-22T07:14:02.950Z,2.13
2018-09-22T07:16:31.087Z,2.43
2018-09-22T07:18:59.197Z,1.80
2018-09-22T07:22:34.653Z,2.03
2018-09-22T07:25:02.788Z,2.13
2018-09-22T07:27:30.901Z,2.70
2018-09-22T07:29:59.049Z,2.07
2018-09-22T07:32:27.273Z,2.30
2018-09-22T07:34:55.486Z,1.73
2018-09-22T07:37:23.691Z,2.63
2018-09-22T07:39:51.801Z,1.63
2018-09-22T07:42:21.002Z,2.13
2018-09-22T07:44:49.460Z,2.03
2018-09-22T07:47:17.683Z,2.50
2018-09-22T07:49:45.885Z,2.20
2018-09-22T07:52:15.110Z,3.17
2018-09-22T07:54:43.636Z,2.60
2018-09-22T07:57:11.847Z,2.33
2018-09-22T07:59:40.013Z,1.37
2018-09-22T08:02:08.193Z,1.70
2018-09-22T08:04:36.394Z,2.43
2018-09-22T08:07:04.612Z,2.43
2018-09-22T08:09:32.789Z,2.00
2018-09-22T08:12:01.898Z,2.03
2018-09-22T08:14:30.136Z,2.13
2018-09-22T08:16:58.331Z,2.33
2018-09-22T08:19:26.573Z,2.30
2018-09-22T08:21:55.473Z,2.20
2018-09-22T08:24:23.630Z,2.50
2018-09-22T08:26:52.874Z,2.40
2018-09-22T08:29:21.170Z,1.90
2018-09-22T08:31:49.382Z,2.50
2018-09-22T08:34:17.754Z,2.43
2018-09-22T08:36:46.098Z,2.30
2018-09-22T08:39:14.182Z,3.50
2018-09-22T08:41:42.657Z,1.83
2018-09-22T08:44:10.829Z,2.43
2018-09-22T08:46:38.949Z,2.47
2018-09-22T08:49:07.218Z,2.27
2018-09-22T08:51:35.561Z,2.00
2018-09-22T08:54:03.675Z,1.97
2018-09-22T08:56:31.812Z,2.20
2018-09-22T08:59:00.038Z,1.80
2018-09-22T09:01:29.426Z,2.20
2018-09-22T09:03:57.533Z,2.63
2018-09-22T09:06:25.773Z,2.63
2018-09-22T09:08:54.067Z,2.50
2018-09-22T09:11:22.310Z,2.50
2018-09-22T09:13:50.467Z,2.17
2018-09-22T09:16:19.586Z,2.63
2018-09-22T09:18:49.187Z,2.37
2018-09-22T09:21:17.599Z,2.77
2018-09-22T09:23:45.824Z,2.50
2018-09-22T09:26:17.463Z,2.20
2018-09-22T09:28:47.300Z,2.37
2018-09-22T09:31:16.201Z,2.30
2018-09-22T09:33:44.408Z,2.33
2018-09-22T09:36:12.629Z,2.80
2018-09-22T09:38:40.940Z,2.50
2018-09-22T09:41:09.326Z,2.33
2018-09-22T09:43:37.549Z,2.50
2018-09-22T09:46:05.782Z,2.60
2018-09-22T09:48:34.050Z,2.40
2018-09-22T09:51:02.273Z,2.37
2018-09-22T09:53:30.774Z,2.20
2018-09-22T09:55:58.953Z,2.63
2018-09-22T09:58:27.176Z,2.50
2018-09-22T10:00:55.365Z,2.53
2018-09-22T10:03:23.473Z,2.47
2018-09-22T10:05:51.653Z,2.53
2018-09-22T10:08:19.930Z,2.33
2018-09-22T10:10:48.184Z,4.00
2018-09-22T10:13:16.342Z,3.00
2018-09-22T10:15:44.493Z,1.83
2018-09-22T10:18:12.613Z,3.00
2018-09-22T10:20:40.790Z,2.90
2018-09-22T10:23:08.996Z,2.33
2018-09-22T10:25:37.142Z,2.47
2018-09-22T10:28:05.604Z,2.43
2018-09-22T10:30:33.725Z,2.83
2018-09-22T10:33:01.995Z,2.57
2018-09-22T10:35:30.544Z,3.03
2018-09-22T10:37:58.767Z,2.03
2018-09-22T10:40:27.956Z,2.63
2018-09-22T10:42:56.316Z,2.57
2018-09-22T10:45:24.693Z,2.50
2018-09-22T10:47:53.030Z,2.50
2018-09-22T10:50:21.222Z,2.80
2018-09-22T10:52:49.438Z,2.77
2018-09-22T10:55:17.506Z,2.60
2018-09-22T10:57:45.663Z,1.90
2018-09-22T11:00:13.810Z,2.40
2018-09-22T11:02:41.975Z,2.40
2018-09-22T11:05:10.110Z,2.47
2018-09-22T11:07:38.304Z,2.47
2018-09-22T11:10:06.505Z,2.57
2018-09-22T11:12:34.710Z,2.27
2018-09-22T11:15:02.807Z,2.00
2018-09-22T11:17:31.020Z,3.17
2018-09-22T11:19:59.277Z,2.13
2018-09-22T11:22:27.497Z,2.10
2018-09-22T11:24:55.639Z,2.03
2018-09-22T11:27:23.854Z,2.23
2018-09-22T11:29:51.990Z,2.30
2018-09-22T11:32:20.276Z,2.70
2018-09-22T11:34:48.701Z,2.10
2018-09-22T11:37:16.900Z,2.20
2018-09-22T11:39:45.169Z,2.27
2018-09-22T11:42:13.475Z,2.00
2018-09-22T11:44:41.670Z,2.40
2018-09-22T11:47:09.893Z,2.50
2018-09-22T11:49:38.024Z,2.57
2018-09-22T11:52:06.292Z,2.40
2018-09-22T11:54:34.473Z,2.50
2018-09-22T11:57:02.658Z,2.30
2018-09-22T11:59:31.067Z,2.10
2018-09-22T12:01:59.302Z,2.20
2018-09-22T12:04:27.364Z,2.80
2018-09-22T12:06:55.499Z,2.13
2018-09-22T12:09:24.702Z,2.47
2018-09-22T12:11:53.183Z,2.60
2018-09-22T12:14:21.417Z,2.73
2018-09-22T12:16:49.868Z,2.37
2018-09-22T12:19:18.342Z,2.23
2018-09-22T12:21:46.582Z,2.57
2018-09-22T12:24:15.153Z,2.20
2018-09-22T12:26:43.396Z,2.20
2018-09-22T12:29:11.616Z,1.90
2018-09-22T12:31:40.271Z,2.30
2018-09-22T12:34:08.369Z,1.20
2018-09-22T12:36:36.728Z,1.10
2018-09-22T12:39:08.736Z,2.20
2018-09-22T12:41:36.912Z,1.50
2018-09-22T12:44:05.856Z,1.50
2018-09-22T12:46:33.993Z,2.60
2018-09-22T12:49:02.770Z,2.40
2018-09-22T12:51:30.925Z,1.60
2018-09-22T12:53:59.133Z,2.17
2018-09-22T12:56:27.410Z,2.60
2018-09-22T12:58:55.543Z,3.10
2018-09-22T13:01:23.811Z,1.70
2018-09-22T13:03:52.327Z,1.60
2018-09-22T13:06:20.561Z,1.77
2018-09-22T13:08:49.620Z,1.70
2018-09-22T13:11:24.668Z,1.80
2018-09-22T13:13:53.388Z,1.67
2018-09-22T13:16:23.760Z,2.10
2018-09-22T13:18:55.316Z,1.47
2018-09-22T13:21:25.251Z,3.33
2018-09-22T13:23:53.678Z,1.50
2018-09-22T13:26:23.343Z,1.50
2018-09-22T13:28:51.674Z,1.70
2018-09-22T13:31:20.275Z,1.90
2018-09-22T13:33:49.374Z,1.77
2018-09-22T13:36:18.659Z,2.10
2018-09-22T13:38:48.251Z,2.33
2018-09-22T13:41:16.574Z,2.17
2018-09-22T13:43:45.890Z,1.77
2018-09-22T13:46:14.093Z,2.43
2018-09-22T13:48:42.514Z,2.13
2018-09-22T13:51:10.656Z,2.60
2018-09-22T13:53:38.929Z,2.10
2018-09-22T13:56:07.187Z,2.57
2018-09-22T13:58:35.260Z,1.97
2018-09-22T14:01:03.530Z,2.33
2018-09-22T14:03:31.727Z,1.93
2018-09-22T14:05:59.855Z,1.70
2018-09-22T14:08:28.041Z,2.10
2018-09-22T14:10:56.224Z,2.80
2018-09-22T14:13:24.406Z,2.27
2018-09-22T14:15:52.532Z,2.67
2018-09-22T14:18:20.805Z,3.20
2018-09-22T14:20:49.037Z,2.20
2018-09-22T14:23:17.314Z,3.20
2018-09-22T14:25:45.535Z,2.70
2018-09-22T14:28:14.361Z,3.03
2018-09-22T14:30:42.701Z,3.00
2018-09-22T14:33:10.829Z,2.87
2018-09-22T14:35:38.989Z,2.53
2018-09-22T14:38:07.392Z,2.17
2018-09-22T14:40:35.544Z,2.47
2018-09-22T14:43:03.629Z,2.20
2018-09-22T14:45:31.781Z,2.40
2018-09-22T14:47:59.985Z,2.60
2018-09-22T14:50:28.205Z,2.87
2018-09-22T14:52:56.436Z,2.60
2018-09-22T14:55:24.730Z,2.13
2018-09-22T14:57:52.905Z,1.90
2018-09-22T15:00:21.134Z,1.80
2018-09-22T15:02:49.322Z,3.17
2018-09-22T15:05:17.601Z,2.90
2018-09-22T15:07:46.492Z,2.67
2018-09-22T15:10:14.668Z,2.33
2018-09-22T15:12:44.277Z,2.43
2018-09-22T15:15:13.022Z,2.70
2018-09-22T15:17:41.565Z,2.57
2018-09-22T15:20:09.701Z,2.70
2018-09-22T15:22:37.941Z,2.67
2018-09-22T15:25:06.180Z,3.00
2018-09-22T15:27:34.826Z,2.87
2018-09-22T15:30:03.103Z,2.70
2018-09-22T15:32:31.462Z,2.90
2018-09-22T15:34:59.586Z,2.87
2018-09-22T15:37:27.909Z,2.90
2018-09-22T15:39:56.106Z,2.30
2018-09-22T15:42:24.322Z,2.37
2018-09-22T15:44:52.506Z,2.60
2018-09-22T15:47:21.023Z,2.57
2018-09-22T15:49:49.207Z,2.23
2018-09-22T15:52:17.822Z,2.30
2018-09-22T15:54:46.866Z,2.10
2018-09-22T15:57:15.073Z,2.90
2018-09-22T15:59:56.432Z,2.57
2018-09-22T16:02:24.789Z,2.60
2018-09-22T16:04:53.159Z,3.10
2018-09-22T16:07:21.356Z,2.87
2018-09-22T16:09:49.939Z,3.10
2018-09-22T16:12:18.681Z,3.20
2018-09-22T16:14:48.389Z,2.77
2018-09-22T16:17:16.948Z,3.03
2018-09-22T16:19:45.253Z,2.90
2018-09-22T16:22:13.482Z,2.97
2018-09-22T16:24:42.681Z,2.80
2018-09-22T16:27:10.879Z,3.30
2018-09-22T16:29:40.835Z,2.60
2018-09-22T16:32:09.163Z,3.03
2018-09-22T16:34:37.596Z,2.87
2018-09-22T16:37:06.005Z,2.70
2018-09-22T16:39:34.344Z,2.33
2018-09-22T16:42:02.609Z,2.73
2018-09-22T16:44:30.738Z,2.47
2018-09-22T16:46:58.841Z,2.60
2018-09-22T16:49:27.076Z,2.90
2018-09-22T16:51:55.179Z,2.50
2018-09-22T16:54:23.360Z,4.80
2018-09-22T16:56:51.505Z,5.17
2018-09-22T16:59:19.896Z,3.07
2018-09-22T17:01:48.029Z,2.70
2018-09-22T17:04:16.355Z,3.10
2018-09-22T17:06:44.420Z,3.00
2018-09-22T17:09:12.579Z,2.67
2018-09-22T17:11:40.717Z,3.07
2018-09-22T17:14:08.937Z,2.57
2018-09-22T17:16:37.142Z,2.57
2018-09-22T17:19:05.325Z,2.70
2018-09-22T17:21:33.450Z,2.40
2018-09-22T17:24:01.570Z,2.60
2018-09-22T17:26:29.797Z,2.87
2018-09-22T17:28:57.913Z,2.83
2018-09-22T17:31:26.153Z,2.63
2018-09-22T17:33:54.278Z,2.80
2018-09-22T17:36:22.528Z,2.57
2018-09-22T17:38:50.806Z,2.70
2018-09-22T17:41:19.044Z,2.53
2018-09-22T17:43:47.165Z,2.50
2018-09-22T17:46:15.373Z,2.70
2018-09-22T17:48:43.706Z,2.70
2018-09-22T17:51:11.858Z,2.77
2018-09-22T17:53:40.085Z,2.70
2018-09-22T17:56:08.214Z,2.70
2018-09-22T17:58:36.523Z,2.80
2018-09-22T18:01:04.864Z,2.90
2018-09-22T18:03:33.143Z,2.60
2018-09-22T18:06:01.363Z,2.87
2018-09-22T18:08:29.443Z,2.63
2018-09-22T18:10:57.606Z,3.00
2018-09-22T18:13:25.792Z,2.43
2018-09-22T18:15:53.957Z,2.50
2018-09-22T18:18:22.101Z,2.50
2018-09-22T18:20:50.263Z,2.57
2018-09-22T18:23:18.462Z,4.13
2018-09-22T18:25:46.712Z,5.23
2018-09-22T18:28:15.044Z,2.77
2018-09-22T18:30:43.479Z,2.87
2018-09-22T18:33:13.289Z,2.73
2018-09-22T18:35:41.456Z,2.43
2018-09-22T18:38:09.633Z,2.43
2018-09-22T18:40:38.585Z,6.43
2018-09-22T18:43:11.910Z,2.80
2018-09-22T18:45:40.168Z,2.50
2018-09-22T18:48:08.922Z,2.80
2018-09-22T18:50:37.075Z,2.73
2018-09-22T18:53:05.313Z,2.87
2018-09-22T18:55:33.514Z,3.47
2018-09-22T18:58:02.053Z,2.80
2018-09-22T19:00:31.225Z,3.73
2018-09-22T19:02:59.446Z,2.90
2018-09-22T19:05:27.648Z,3.40
2018-09-22T19:07:55.800Z,3.00
2018-09-22T19:10:24.127Z,2.80
2018-09-22T19:12:52.300Z,3.03
2018-09-22T19:15:27.942Z,2.47
2018-09-22T19:18:00.786Z,2.87
2018-09-22T19:21:32.093Z,2.40
2018-09-22T19:24:09.962Z,3.00
2018-09-22T19:26:42.526Z,3.47
2018-09-22T19:30:15.635Z,4.20
2018-09-22T19:32:55.170Z,3.30
2018-09-22T19:35:29.703Z,3.07
2018-09-22T19:38:02.697Z,2.80
2018-09-22T19:40:37.733Z,3.33
2018-09-22T19:43:28.211Z,3.30
2018-09-22T19:46:00.924Z,3.43
2018-09-22T19:48:34.444Z,3.60
2018-09-22T19:51:05.292Z,3.03
2018-09-22T19:53:33.427Z,2.60
2018-09-22T19:56:01.668Z,2.67
2018-09-22T19:58:30.562Z,2.40
2018-09-22T20:00:58.965Z,2.37
2018-09-22T20:03:27.218Z,11.13
2018-09-22T20:05:56.414Z,2.90
2018-09-22T20:08:24.668Z,2.23
2018-09-22T20:10:53.579Z,2.27
2018-09-22T20:13:21.894Z,2.57
2018-09-22T20:15:50.125Z,2.67
2018-09-22T20:18:18.298Z,2.40
2018-09-22T20:20:46.489Z,2.10
2018-09-22T20:23:14.710Z,2.30
2018-09-22T20:25:42.887Z,2.57
2018-09-22T20:28:11.142Z,3.00
2018-09-22T20:30:39.397Z,3.00
2018-09-22T20:33:07.560Z,2.97
2018-09-22T20:35:35.981Z,3.00
2018-09-22T20:38:04.316Z,4.13
2018-09-22T20:40:34.271Z,3.80
2018-09-22T20:43:03.564Z,4.13
2018-09-22T20:45:31.728Z,4.27
2018-09-22T20:47:59.921Z,3.97
2018-09-22T20:50:28.508Z,4.33
2018-09-22T20:52:56.680Z,3.80
2018-09-22T20:55:24.809Z,4.37
2018-09-22T20:57:52.973Z,4.27
2018-09-22T21:00:21.145Z,4.60
2018-09-22T21:02:49.334Z,5.80
2018-09-22T21:05:17.522Z,4.60
2018-09-22T21:07:45.704Z,4.17
2018-09-22T21:10:13.898Z,4.10
2018-09-22T21:12:42.121Z,4.00
2018-09-22T21:15:10.326Z,4.30
2018-09-22T21:17:38.526Z,3.73
2018-09-22T21:20:06.716Z,3.73
2018-09-22T21:22:34.981Z,3.60
2018-09-22T21:25:03.226Z,3.73
2018-09-22T21:27:31.436Z,3.53
2018-09-22T21:29:59.618Z,3.90
2018-09-22T21:32:27.772Z,3.77
2018-09-22T21:34:56.046Z,4.00
2018-09-22T21:37:24.178Z,4.10
2018-09-22T21:39:52.369Z,4.00
2018-09-22T21:42:20.542Z,4.23
2018-09-22T21:44:48.838Z,6.20
2018-09-22T21:47:17.119Z,5.40
2018-09-22T21:49:45.274Z,4.27
2018-09-22T21:52:13.477Z,4.80
2018-09-22T21:54:41.641Z,4.23
2018-09-22T21:57:09.777Z,4.90
2018-09-22T21:59:37.932Z,4.60
2018-09-22T22:02:06.118Z,4.40
2018-09-22T22:04:34.332Z,5.03
2018-09-22T22:07:02.494Z,4.83
2018-09-22T22:09:30.653Z,4.90
2018-09-22T22:11:58.795Z,4.60
2018-09-22T22:14:26.921Z,5.00
2018-09-22T22:16:55.057Z,4.90
2018-09-22T22:19:23.217Z,5.10
2018-09-22T22:21:51.384Z,4.97
2018-09-22T22:24:19.525Z,4.83
2018-09-22T22:26:47.637Z,5.20
2018-09-22T22:29:15.932Z,5.27
2018-09-22T22:31:44.054Z,5.00
2018-09-22T22:34:12.164Z,4.90
2018-09-22T22:36:40.275Z,5.50
2018-09-22T22:39:08.449Z,20.97
2018-09-22T22:41:36.583Z,6.17
2018-09-22T22:44:04.773Z,5.10
2018-09-22T22:46:32.889Z,5.63
2018-09-22T22:49:01.102Z,5.67
2018-09-22T22:51:29.332Z,5.80
2018-09-22T22:53:58.015Z,5.67
2018-09-22T22:56:26.137Z,5.40
2018-09-22T22:58:54.322Z,5.13
2018-09-22T23:01:22.488Z,5.10
2018-09-22T23:03:50.622Z,5.33
2018-09-22T23:06:18.769Z,4.80
2018-09-22T23:08:46.934Z,5.20
2018-09-22T23:11:15.051Z,5.40
2018-09-22T23:13:43.294Z,5.20
2018-09-22T23:16:11.574Z,5.50
2018-09-22T23:18:39.710Z,5.03
2018-09-22T23:21:08.041Z,5.30
2018-09-22T23:23:36.027Z,5.10
2018-09-22T23:26:04.150Z,5.63
2018-09-22T23:28:32.453Z,5.23
2018-09-22T23:31:00.602Z,5.27
2018-09-22T23:33:28.749Z,5.70
2018-09-22T23:35:56.926Z,6.83
2018-09-22T23:38:25.047Z,4.97
2018-09-22T23:40:53.202Z,4.90
2018-09-22T23:43:21.386Z,6.17
2018-09-22T23:45:49.546Z,5.30
2018-09-22T23:48:17.800Z,5.33
2018-09-22T23:50:46.069Z,4.60
2018-09-22T23:53:14.274Z,5.57
2018-09-22T23:55:42.428Z,5.40
2018-09-22T23:58:10.691Z,4.87
